createdAt,value
2022-09-13T00:01:26.940Z,3.17
2022-09-13T00:03:53.716Z,3.55
2022-09-13T00:06:22.632Z,3.42
2022-09-13T00:08:49.847Z,2.72
2022-09-13T00:11:23.462Z,4.22
2022-09-13T00:13:50.940Z,3.83
2022-09-13T00:16:20.253Z,3.17
2022-09-13T00:18:47.103Z,2.92
2022-09-13T00:21:16.749Z,3.08
2022-09-13T00:23:49.123Z,3.25
2022-09-13T00:26:23.464Z,3.25
2022-09-13T00:28:51.899Z,2.83
2022-09-13T00:31:19.839Z,3.10
2022-09-13T00:33:46.929Z,3.67
2022-09-13T00:36:17.455Z,2.88
2022-09-13T00:38:44.518Z,2.97
2022-09-13T00:41:14.509Z,3.03
2022-09-13T00:43:44.149Z,3.25
2022-09-13T00:46:16.632Z,3.03
2022-09-13T00:48:46.346Z,2.88
2022-09-13T00:51:13.981Z,3.20
2022-09-13T00:53:47.815Z,2.75
2022-09-13T00:56:45.780Z,3.50
2022-09-13T00:59:39.508Z,3.05
2022-09-13T01:02:06.542Z,2.90
2022-09-13T01:04:37.107Z,3.65
2022-09-13T01:07:08.725Z,3.00
2022-09-13T01:09:44.026Z,3.08
2022-09-13T01:12:38.089Z,3.45
2022-09-13T01:15:06.609Z,2.95
2022-09-13T01:17:35.374Z,3.58
2022-09-13T01:20:04.433Z,3.22
2022-09-13T01:22:57.172Z,2.70
2022-09-13T01:25:43.919Z,3.28
2022-09-13T01:28:35.036Z,3.17
2022-09-13T01:31:18.837Z,2.92
2022-09-13T01:34:07.012Z,2.65
2022-09-13T01:36:42.632Z,3.08
2022-09-13T01:39:17.801Z,3.10
2022-09-13T01:42:11.586Z,2.75
2022-09-13T01:45:02.371Z,3.35
2022-09-13T01:47:48.189Z,3.30
2022-09-13T01:50:26.649Z,3.33
2022-09-13T01:53:02.006Z,3.15
2022-09-13T01:55:54.680Z,3.10
2022-09-13T01:58:29.308Z,2.85
2022-09-13T02:01:24.826Z,2.80
2022-09-13T02:04:08.619Z,2.83
2022-09-13T02:06:45.776Z,3.17
2022-09-13T02:09:21.679Z,2.45
2022-09-13T02:11:54.832Z,2.53
2022-09-13T02:14:58.972Z,3.22
2022-09-13T02:17:29.960Z,3.10
2022-09-13T02:20:21.428Z,3.42
2022-09-13T02:22:57.275Z,2.65
2022-09-13T02:25:26.716Z,2.90
2022-09-13T02:28:02.075Z,2.80
2022-09-13T02:30:31.705Z,2.78
2022-09-13T02:33:13.159Z,2.65
2022-09-13T02:35:53.845Z,3.45
2022-09-13T02:38:30.370Z,2.63
2022-09-13T02:41:12.079Z,2.80
2022-09-13T02:43:44.849Z,3.00
2022-09-13T02:46:27.776Z,2.63
2022-09-13T02:49:08.551Z,2.78
2022-09-13T02:51:55.467Z,3.40
2022-09-13T02:54:32.880Z,3.10
2022-09-13T02:57:07.525Z,3.38
2022-09-13T02:59:34.595Z,3.58
2022-09-13T03:02:08.236Z,3.45
2022-09-13T03:04:35.467Z,3.23
2022-09-13T03:07:07.119Z,3.15
2022-09-13T03:09:34.400Z,3.70
2022-09-13T03:12:16.156Z,3.05
2022-09-13T03:14:56.772Z,3.30
2022-09-13T03:17:34.457Z,3.17
2022-09-13T03:20:09.457Z,3.40
2022-09-13T03:23:11.980Z,3.05
2022-09-13T03:26:08.830Z,2.78
2022-09-13T03:29:12.351Z,3.30
2022-09-13T03:31:56.860Z,3.25
2022-09-13T03:34:59.243Z,3.30
2022-09-13T03:37:38.596Z,3.33
2022-09-13T03:40:12.842Z,3.70
2022-09-13T03:42:53.508Z,3.10
2022-09-13T03:45:26.395Z,3.20
2022-09-13T03:47:55.157Z,3.05
2022-09-13T03:50:25.121Z,3.67
2022-09-13T03:52:57.553Z,3.35
2022-09-13T03:55:26.026Z,2.90
2022-09-13T03:57:52.782Z,3.00
2022-09-13T04:00:20.231Z,3.05
2022-09-13T04:02:46.956Z,2.85
2022-09-13T04:05:13.687Z,3.33
2022-09-13T04:07:40.340Z,3.35
2022-09-13T04:10:10.721Z,3.40
2022-09-13T04:12:41.407Z,3.13
2022-09-13T04:15:09.087Z,3.80
2022-09-13T04:17:36.561Z,3.13
2022-09-13T04:20:04.561Z,3.30
2022-09-13T04:22:31.653Z,3.22
2022-09-13T04:25:02.506Z,3.45
2022-09-13T04:27:29.536Z,3.13
2022-09-13T04:29:56.170Z,3.13
2022-09-13T04:32:22.833Z,3.35
2022-09-13T04:34:51.408Z,2.55
2022-09-13T04:37:18.016Z,2.92
2022-09-13T04:39:44.629Z,3.40
2022-09-13T04:42:14.141Z,3.40
2022-09-13T04:44:40.934Z,3.80
2022-09-13T04:47:08.324Z,3.60
2022-09-13T04:49:35.020Z,3.22
2022-09-13T04:52:01.827Z,3.45
2022-09-13T04:54:28.455Z,3.25
2022-09-13T04:56:55.265Z,4.10
2022-09-13T04:59:22.031Z,3.63
2022-09-13T05:01:48.700Z,4.47
2022-09-13T05:04:15.514Z,3.92
2022-09-13T05:06:44.503Z,4.32
2022-09-13T05:09:14.380Z,3.40
2022-09-13T05:11:44.189Z,3.63
2022-09-13T05:14:12.072Z,4.38
2022-09-13T05:16:38.771Z,3.67
2022-09-13T05:19:05.450Z,3.95
2022-09-13T05:21:32.123Z,3.90
2022-09-13T05:24:02.036Z,4.03
2022-09-13T05:26:33.716Z,4.43
2022-09-13T05:29:00.719Z,3.60
2022-09-13T05:31:40.175Z,4.13
2022-09-13T05:34:10.686Z,4.20
2022-09-13T05:36:37.975Z,3.67
2022-09-13T05:39:29.772Z,4.13
2022-09-13T05:41:54.442Z,4.30
2022-09-13T05:44:21.069Z,4.35
2022-09-13T05:46:49.054Z,5.40
2022-09-13T05:49:15.801Z,4.55
2022-09-13T05:51:42.405Z,4.95
2022-09-13T05:54:12.140Z,4.63
2022-09-13T05:56:38.792Z,4.50
2022-09-13T05:59:05.433Z,4.07
2022-09-13T06:01:32.291Z,3.65
2022-09-13T06:03:59.552Z,4.10
2022-09-13T06:06:26.875Z,4.25
2022-09-13T06:08:57.565Z,3.75
2022-09-13T06:11:26.230Z,3.60
2022-09-13T06:13:53.603Z,3.75
2022-09-13T06:16:21.021Z,3.70
2022-09-13T06:18:49.193Z,3.63
2022-09-13T06:21:28.899Z,3.75
2022-09-13T06:23:57.209Z,3.38
2022-09-13T06:26:27.051Z,3.55
2022-09-13T06:28:56.836Z,3.83
2022-09-13T06:31:25.535Z,3.15
2022-09-13T06:33:57.842Z,3.35
2022-09-13T06:36:26.937Z,3.28
2022-09-13T06:38:55.952Z,3.65
2022-09-13T06:41:25.127Z,3.60
2022-09-13T06:43:57.739Z,3.65
2022-09-13T06:46:25.605Z,3.58
2022-09-13T06:48:52.876Z,3.60
2022-09-13T06:51:24.727Z,3.05
2022-09-13T06:53:52.281Z,3.10
2022-09-13T06:56:21.619Z,3.40
2022-09-13T06:58:50.198Z,2.85
2022-09-13T07:01:25.377Z,2.88
2022-09-13T07:04:04.608Z,2.70
2022-09-13T07:06:34.724Z,2.83
2022-09-13T07:09:03.718Z,2.85
2022-09-13T07:11:39.128Z,2.50
2022-09-13T07:14:06.988Z,2.78
2022-09-13T07:16:36.764Z,1.90
2022-09-13T07:19:06.720Z,2.45
2022-09-13T07:21:34.985Z,2.20
2022-09-13T07:24:02.661Z,2.10
2022-09-13T07:26:33.743Z,1.85
2022-09-13T07:29:05.221Z,2.35
2022-09-13T07:31:36.432Z,2.33
2022-09-13T07:34:08.974Z,2.67
2022-09-13T07:36:38.543Z,2.25
2022-09-13T07:39:08.231Z,2.10
2022-09-13T07:41:39.762Z,2.05
2022-09-13T07:44:06.839Z,2.03
2022-09-13T07:46:41.916Z,2.17
2022-09-13T07:49:08.567Z,2.08
2022-09-13T07:51:37.465Z,2.03
2022-09-13T07:54:06.724Z,2.20
2022-09-13T07:56:38.445Z,2.28
2022-09-13T07:59:07.568Z,3.38
2022-09-13T08:01:40.285Z,1.77
2022-09-13T08:04:14.474Z,2.00
2022-09-13T08:06:45.740Z,1.80
2022-09-13T08:09:15.111Z,1.90
2022-09-13T08:11:48.851Z,2.00
2022-09-13T08:14:17.835Z,1.67
2022-09-13T08:16:45.232Z,1.65
2022-09-13T08:19:19.106Z,2.20
2022-09-13T08:21:46.759Z,1.73
2022-09-13T08:24:22.109Z,1.70
2022-09-13T08:26:52.231Z,1.80
2022-09-13T08:29:19.477Z,1.67
2022-09-13T08:31:46.090Z,1.90
2022-09-13T08:34:15.107Z,2.20
2022-09-13T08:36:41.910Z,1.55
2022-09-13T08:39:09.767Z,1.83
2022-09-13T08:41:44.976Z,1.95
2022-09-13T08:44:17.768Z,1.48
2022-09-13T08:46:47.758Z,1.40
2022-09-13T08:49:23.990Z,1.60
2022-09-13T08:52:01.479Z,1.50
2022-09-13T08:54:28.595Z,1.50
2022-09-13T08:57:24.026Z,1.48
2022-09-13T09:00:20.627Z,1.50
2022-09-13T09:03:02.666Z,1.50
2022-09-13T09:05:35.134Z,1.38
2022-09-13T09:08:31.496Z,1.80
2022-09-13T09:11:03.787Z,1.80
2022-09-13T09:13:35.564Z,1.52
2022-09-13T09:16:07.471Z,1.23
2022-09-13T09:18:43.488Z,1.80
2022-09-13T09:21:18.011Z,1.65
2022-09-13T09:26:26.817Z,1.38
2022-09-13T09:28:58.888Z,1.65
2022-09-13T09:31:42.419Z,1.77
2022-09-13T09:34:26.640Z,2.10
2022-09-13T09:37:12.212Z,1.45
2022-09-13T09:39:40.954Z,1.67
2022-09-13T09:42:18.517Z,1.55
2022-09-13T09:45:23.408Z,1.60
2022-09-13T09:47:51.775Z,1.65
2022-09-13T09:50:28.419Z,1.67
2022-09-13T09:53:05.071Z,1.73
2022-09-13T09:56:16.755Z,1.85
2022-09-13T09:58:45.332Z,1.88
2022-09-13T10:01:37.731Z,1.60
2022-09-13T10:04:20.036Z,1.60
2022-09-13T10:06:47.308Z,2.00
2022-09-13T10:09:13.847Z,1.75
2022-09-13T10:11:49.192Z,2.03
2022-09-13T10:14:34.732Z,1.65
2022-09-13T10:17:27.695Z,2.10
2022-09-13T10:20:02.093Z,1.92
2022-09-13T10:22:31.357Z,2.08
2022-09-13T10:25:23.056Z,2.30
2022-09-13T10:27:54.260Z,2.22
2022-09-13T10:30:46.474Z,2.30
2022-09-13T10:33:36.338Z,2.65
2022-09-13T10:36:48.250Z,2.13
2022-09-13T10:39:20.328Z,2.05
2022-09-13T10:42:06.611Z,2.20
2022-09-13T10:44:53.841Z,2.05
2022-09-13T10:47:24.023Z,1.80
2022-09-13T10:49:56.276Z,1.80
2022-09-13T10:52:53.052Z,2.03
2022-09-13T10:55:20.249Z,1.60
2022-09-13T10:57:55.342Z,2.03
2022-09-13T11:00:31.268Z,1.90
2022-09-13T11:03:16.788Z,1.90
2022-09-13T11:05:54.981Z,1.55
2022-09-13T11:08:35.736Z,1.80
2022-09-13T11:11:23.036Z,1.60
2022-09-13T11:14:20.425Z,1.75
2022-09-13T11:17:03.867Z,1.80
2022-09-13T11:19:45.549Z,1.35
2022-09-13T11:22:50.974Z,1.90
2022-09-13T11:25:40.564Z,1.50
2022-09-13T11:28:40.433Z,1.40
2022-09-13T11:31:57.437Z,1.48
2022-09-13T11:34:39.338Z,1.80
2022-09-13T11:37:14.951Z,2.00
2022-09-13T11:39:58.079Z,2.13
2022-09-13T11:42:54.112Z,1.60
2022-09-13T11:45:32.620Z,1.48
2022-09-13T11:48:44.417Z,1.27
2022-09-13T11:51:49.079Z,1.02
2022-09-13T11:54:43.301Z,1.10
2022-09-13T11:57:19.791Z,1.63
2022-09-13T11:59:59.504Z,1.40
2022-09-13T12:02:47.452Z,1.42
2022-09-13T12:05:24.371Z,1.20
2022-09-13T12:08:01.084Z,1.35
2022-09-13T12:10:40.796Z,1.50
2022-09-13T12:13:15.421Z,1.40
2022-09-13T12:15:48.453Z,1.35
2022-09-13T12:18:29.908Z,1.33
2022-09-13T12:21:10.497Z,1.30
2022-09-13T12:23:40.692Z,1.27
2022-09-13T12:26:15.140Z,1.58
2022-09-13T12:29:03.134Z,1.33
2022-09-13T12:31:32.147Z,1.10
2022-09-13T12:34:00.792Z,1.25
2022-09-13T12:37:21.285Z,1.00
2022-09-13T12:40:02.650Z,0.90
2022-09-13T12:42:44.190Z,1.00
2022-09-13T12:45:41.828Z,0.50
2022-09-13T12:48:11.518Z,0.50
2022-09-13T12:50:46.564Z,0.47
2022-09-13T12:53:37.584Z,0.40
2022-09-13T12:56:37.154Z,0.32
2022-09-13T12:59:23.009Z,0.55
2022-09-13T13:01:52.269Z,0.65
2022-09-13T13:04:21.773Z,0.80
2022-09-13T13:06:51.758Z,0.85
2022-09-13T13:09:39.059Z,0.80
2022-09-13T13:12:06.246Z,0.60
2022-09-13T13:14:39.109Z,0.70
2022-09-13T13:17:43.261Z,0.80
2022-09-13T13:20:41.238Z,0.50
2022-09-13T13:23:20.001Z,0.60
2022-09-13T13:26:11.390Z,0.60
2022-09-13T13:28:52.125Z,0.60
2022-09-13T13:31:24.765Z,0.68
2022-09-13T13:34:02.108Z,0.50
2022-09-13T13:36:53.077Z,0.50
2022-09-13T13:39:28.207Z,0.40
2022-09-13T13:41:58.841Z,0.38
2022-09-13T13:44:25.579Z,0.70
2022-09-13T13:47:17.292Z,0.40
2022-09-13T13:49:46.329Z,0.60
2022-09-13T13:52:16.816Z,0.68
2022-09-13T13:54:46.041Z,0.57
2022-09-13T13:57:29.892Z,0.80
2022-09-13T14:00:17.933Z,0.75
2022-09-13T14:02:50.560Z,0.70
2022-09-13T14:05:22.560Z,0.70
2022-09-13T14:08:25.932Z,0.70
2022-09-13T14:11:34.473Z,0.60
2022-09-13T14:14:23.618Z,1.08
2022-09-13T14:17:01.878Z,1.02
2022-09-13T14:19:41.551Z,1.00
2022-09-13T14:22:16.040Z,1.08
2022-09-13T14:27:20.618Z,1.65
2022-09-13T14:29:51.148Z,1.10
2022-09-13T14:32:35.835Z,1.35
2022-09-13T14:35:07.236Z,1.08
2022-09-13T14:37:38.637Z,1.25
2022-09-13T14:40:10.124Z,1.00
2022-09-13T14:42:43.176Z,1.23
2022-09-13T14:45:25.502Z,0.90
2022-09-13T14:48:14.944Z,1.13
2022-09-13T14:51:20.948Z,0.80
2022-09-13T14:53:52.071Z,0.70
2022-09-13T14:56:53.432Z,0.80
2022-09-13T14:59:32.131Z,0.90
2022-09-13T15:02:05.359Z,0.80
2022-09-13T15:04:32.132Z,0.88
2022-09-13T15:07:36.327Z,0.82
2022-09-13T15:10:09.960Z,0.47
2022-09-13T15:12:37.275Z,0.70
2022-09-13T15:15:19.224Z,0.60
2022-09-13T15:18:16.111Z,0.60
2022-09-13T15:21:17.025Z,1.15
2022-09-13T15:23:51.438Z,1.38
2022-09-13T15:28:54.131Z,0.68
2022-09-13T15:31:31.748Z,0.57
2022-09-13T15:34:24.320Z,0.50
2022-09-13T15:37:14.870Z,0.32
2022-09-13T15:40:02.286Z,0.60
2022-09-13T15:42:28.990Z,0.50
2022-09-13T15:44:55.532Z,0.50
2022-09-13T15:47:22.223Z,0.40
2022-09-13T15:49:51.097Z,0.65
2022-09-13T15:52:19.964Z,0.57
2022-09-13T15:54:49.496Z,0.50
2022-09-13T15:57:28.208Z,0.40
2022-09-13T15:59:56.867Z,0.30
2022-09-13T16:02:26.367Z,0.45
2022-09-13T16:04:53.881Z,0.70
2022-09-13T16:07:21.125Z,0.65
2022-09-13T16:09:48.335Z,0.70
2022-09-13T16:12:15.105Z,0.50
2022-09-13T16:14:41.826Z,0.57
2022-09-13T16:17:21.361Z,0.80
2022-09-13T16:19:48.341Z,0.82
2022-09-13T16:22:16.433Z,0.52
2022-09-13T16:24:43.772Z,0.88
2022-09-13T16:27:13.600Z,0.57
2022-09-13T16:29:41.116Z,0.85
2022-09-13T16:32:09.823Z,0.82
2022-09-13T16:34:36.416Z,0.70
2022-09-13T16:37:03.028Z,0.90
2022-09-13T16:39:31.643Z,1.05
2022-09-13T16:42:00.168Z,0.85
2022-09-13T16:44:28.832Z,0.60
2022-09-13T16:46:55.474Z,1.05
2022-09-13T16:49:22.177Z,0.70
2022-09-13T16:51:49.020Z,1.83
2022-09-13T16:54:15.656Z,0.93
2022-09-13T16:56:42.583Z,0.85
2022-09-13T16:59:09.427Z,1.08
2022-09-13T17:01:36.279Z,0.98
2022-09-13T17:04:03.641Z,1.00
2022-09-13T17:06:30.444Z,0.75
2022-09-13T17:09:02.520Z,0.90
2022-09-13T17:11:38.956Z,0.60
2022-09-13T17:14:07.729Z,0.52
2022-09-13T17:16:38.090Z,0.60
2022-09-13T17:19:08.763Z,0.60
2022-09-13T17:21:35.865Z,0.57
2022-09-13T17:24:02.932Z,0.57
2022-09-13T17:26:29.687Z,0.70
2022-09-13T17:28:57.331Z,0.90
2022-09-13T17:31:24.335Z,0.80
2022-09-13T17:33:51.181Z,0.85
2022-09-13T17:36:17.987Z,0.77
2022-09-13T17:38:45.126Z,0.70
2022-09-13T17:41:14.513Z,1.38
2022-09-13T17:43:43.141Z,0.70
2022-09-13T17:46:16.258Z,0.70
2022-09-13T17:48:46.017Z,0.68
2022-09-13T17:51:15.426Z,0.80
2022-09-13T17:53:47.736Z,0.57
2022-09-13T17:56:23.825Z,0.77
2022-09-13T17:58:50.460Z,1.30
2022-09-13T18:01:17.393Z,1.05
2022-09-13T18:03:44.284Z,2.75
2022-09-13T18:06:11.885Z,2.70
2022-09-13T18:08:39.414Z,1.50
2022-09-13T18:11:14.229Z,1.20
2022-09-13T18:13:43.043Z,1.30
2022-09-13T18:16:21.772Z,1.70
2022-09-13T18:18:50.153Z,0.90
2022-09-13T18:21:19.270Z,1.70
2022-09-13T18:23:52.264Z,1.20
2022-09-13T18:26:21.301Z,1.15
2022-09-13T18:28:53.668Z,1.20
2022-09-13T18:31:20.565Z,1.00
2022-09-13T18:33:47.965Z,1.23
2022-09-13T18:36:16.816Z,1.52
2022-09-13T18:38:45.956Z,1.27
2022-09-13T18:41:14.958Z,0.98
2022-09-13T18:43:45.826Z,0.88
2022-09-13T18:46:19.404Z,1.10
2022-09-13T18:48:48.622Z,0.98
2022-09-13T18:51:17.931Z,1.42
2022-09-13T18:53:45.654Z,0.70
2022-09-13T18:56:15.405Z,1.00
2022-09-13T18:58:43.392Z,0.68
2022-09-13T19:01:15.563Z,0.52
2022-09-13T19:03:49.380Z,0.88
2022-09-13T19:06:24.833Z,0.57
2022-09-13T19:08:53.636Z,0.40
2022-09-13T19:11:45.190Z,0.50
2022-09-13T19:14:10.184Z,0.60
2022-09-13T19:16:37.000Z,0.50
2022-09-13T19:19:05.426Z,0.60
2022-09-13T19:21:33.209Z,0.50
2022-09-13T19:24:06.571Z,0.60
2022-09-13T19:26:39.368Z,0.20
2022-09-13T19:29:08.940Z,0.50
2022-09-13T19:31:39.145Z,0.50
2022-09-13T19:34:09.228Z,0.47
2022-09-13T19:36:38.319Z,0.40
2022-09-13T19:39:06.353Z,0.50
2022-09-13T19:41:33.611Z,0.40
2022-09-13T19:44:01.843Z,0.40
2022-09-13T19:46:31.939Z,0.50
2022-09-13T19:48:59.669Z,0.40
2022-09-13T19:51:33.398Z,0.40
2022-09-13T19:54:00.939Z,0.30
2022-09-13T19:56:32.970Z,0.30
2022-09-13T19:59:00.780Z,0.60
2022-09-13T20:01:36.533Z,0.40
2022-09-13T20:04:08.231Z,0.50
2022-09-13T20:06:44.371Z,0.50
2022-09-13T20:09:12.713Z,0.73
2022-09-13T20:11:42.622Z,0.40
2022-09-13T20:14:09.752Z,0.30
2022-09-13T20:16:40.493Z,0.28
2022-09-13T20:19:29.596Z,0.60
2022-09-13T20:21:55.633Z,1.98
2022-09-13T20:24:23.156Z,0.50
2022-09-13T20:26:52.100Z,0.57
2022-09-13T20:29:19.048Z,0.63
2022-09-13T20:31:45.786Z,0.70
2022-09-13T20:34:15.199Z,0.80
2022-09-13T20:36:44.460Z,0.40
2022-09-13T20:39:11.613Z,0.52
2022-09-13T20:41:38.476Z,0.68
2022-09-13T20:44:05.506Z,0.40
2022-09-13T20:46:32.286Z,0.68
2022-09-13T20:48:59.465Z,1.42
2022-09-13T20:51:28.117Z,0.50
2022-09-13T20:53:58.137Z,0.63
2022-09-13T20:56:25.117Z,0.60
2022-09-13T20:58:57.731Z,0.45
2022-09-13T21:01:25.487Z,0.77
2022-09-13T21:03:53.941Z,1.42
2022-09-13T21:06:26.270Z,0.50
2022-09-13T21:08:54.025Z,0.60
2022-09-13T21:11:32.476Z,0.55
2022-09-13T21:14:03.027Z,0.47
2022-09-13T21:16:35.002Z,0.43
2022-09-13T21:19:01.877Z,0.55
2022-09-13T21:21:38.562Z,0.52
2022-09-13T21:24:09.859Z,0.70
2022-09-13T21:26:42.235Z,0.70
2022-09-13T21:29:10.175Z,0.45
2022-09-13T21:31:38.269Z,0.65
2022-09-13T21:34:08.597Z,1.20
2022-09-13T21:36:35.811Z,0.68
2022-09-13T21:39:03.496Z,0.60
2022-09-13T21:41:30.847Z,1.25
2022-09-13T21:44:00.132Z,2.00
2022-09-13T21:46:31.278Z,0.77
2022-09-13T21:48:59.945Z,1.00
2022-09-13T21:51:31.344Z,0.73
2022-09-13T21:53:59.538Z,0.68
2022-09-13T21:56:28.627Z,0.55
2022-09-13T21:58:55.269Z,0.60
2022-09-13T22:01:23.504Z,0.40
2022-09-13T22:03:51.949Z,0.88
2022-09-13T22:06:20.519Z,0.90
2022-09-13T22:08:58.903Z,1.20
2022-09-13T22:11:28.993Z,1.00
2022-09-13T22:13:57.252Z,0.60
2022-09-13T22:16:35.721Z,0.82
2022-09-13T22:19:09.061Z,0.82
2022-09-13T22:21:38.982Z,1.55
2022-09-13T22:24:07.960Z,1.10
2022-09-13T22:26:39.625Z,1.25
2022-09-13T22:29:07.682Z,1.00
2022-09-13T22:31:37.531Z,0.85
2022-09-13T22:34:05.097Z,0.80
2022-09-13T22:36:31.958Z,0.95
2022-09-13T22:38:59.087Z,1.00
2022-09-13T22:41:28.415Z,1.15
2022-09-13T22:43:55.492Z,1.33
2022-09-13T22:46:28.736Z,1.40
2022-09-13T22:48:56.300Z,1.45
2022-09-13T22:51:23.859Z,1.17
2022-09-13T22:53:52.002Z,1.23
2022-09-13T22:56:30.291Z,1.33
2022-09-13T22:59:00.863Z,1.00
2022-09-13T23:01:29.151Z,1.30
2022-09-13T23:03:56.562Z,1.13
2022-09-13T23:06:25.534Z,0.98
2022-09-13T23:08:53.761Z,1.33
2022-09-13T23:11:27.093Z,1.25
2022-09-13T23:13:58.351Z,1.23
2022-09-13T23:16:33.881Z,1.40
2022-09-13T23:19:00.803Z,1.30
2022-09-13T23:21:31.103Z,1.00
2022-09-13T23:24:00.848Z,0.90
2022-09-13T23:26:28.495Z,0.90
2022-09-13T23:28:57.916Z,0.90
2022-09-13T23:31:27.462Z,1.23
2022-09-13T23:33:56.879Z,1.05
2022-09-13T23:36:27.100Z,0.70
2022-09-13T23:38:56.191Z,0.60
2022-09-13T23:41:25.985Z,0.80
2022-09-13T23:43:53.811Z,0.80
2022-09-13T23:46:21.158Z,0.60
2022-09-13T23:48:48.191Z,0.52
2022-09-13T23:51:20.333Z,0.85
2022-09-13T23:53:47.367Z,1.00
2022-09-13T23:56:14.272Z,0.57
2022-09-13T23:58:40.954Z,0.75
